createdAt,value
2022-08-12T00:00:39.665Z,99998.34
2022-08-12T00:03:24.929Z,99995.88
2022-08-12T00:06:11.693Z,99998.56
2022-08-12T00:08:57.528Z,99995.88
2022-08-12T00:11:43.981Z,100000.47
2022-08-12T00:14:29.726Z,99996.13
2022-08-12T00:17:15.281Z,99996.34
2022-08-12T00:20:00.868Z,99998.03
2022-08-12T00:22:58.798Z,99999.06
2022-08-12T00:26:20.477Z,99995.53
2022-08-12T00:29:02.393Z,100007.19
2022-08-12T00:31:47.665Z,100003.44
2022-08-12T00:34:33.136Z,100008.00
2022-08-12T00:37:18.771Z,100010.50
2022-08-12T00:40:11.565Z,100010.50
2022-08-12T00:42:39.605Z,100006.16
2022-08-12T00:45:08.442Z,100010.50
2022-08-12T00:47:36.464Z,100008.59
2022-08-12T00:50:06.190Z,100005.91
2022-08-12T00:52:34.944Z,100007.78
2022-08-12T00:55:05.923Z,100008.88
2022-08-12T00:57:37.151Z,100003.44
2022-08-12T01:00:08.613Z,100009.69
2022-08-12T01:02:37.711Z,100008.88
2022-08-12T01:05:24.134Z,100011.81
2022-08-12T01:08:09.540Z,100010.97
2022-08-12T01:10:57.274Z,100007.69
2022-08-12T01:13:25.333Z,100010.41
2022-08-12T01:15:54.407Z,100010.41
2022-08-12T01:18:22.963Z,100009.81
2022-08-12T01:20:57.814Z,100004.38
2022-08-12T01:23:52.433Z,100002.75
2022-08-12T01:26:23.358Z,100006.53
2022-08-12T01:28:52.649Z,100017.38
2022-08-12T01:31:20.906Z,100011.09
2022-08-12T01:33:59.842Z,100017.38
2022-08-12T01:36:28.898Z,100001.13
2022-08-12T01:38:57.607Z,100001.13
2022-08-12T01:41:27.463Z,99994.84
2022-08-12T01:43:55.462Z,99999.44
2022-08-12T01:46:37.428Z,99995.69
2022-08-12T01:49:12.820Z,99993.00
2022-08-12T01:52:21.046Z,99989.44
2022-08-12T01:54:31.657Z,99983.19
2022-08-12T01:57:11.055Z,99988.63
2022-08-12T01:59:50.699Z,99983.19
2022-08-12T02:02:23.476Z,99981.56
2022-08-12T02:05:20.626Z,99969.06
2022-08-12T02:08:13.967Z,99972.84
2022-08-12T02:11:07.748Z,99971.19
2022-08-12T02:14:07.660Z,99969.53
2022-08-12T02:16:51.815Z,99962.47
2022-08-12T02:19:28.696Z,99965.44
2022-08-12T02:22:14.884Z,99960.81
2022-08-12T02:24:43.106Z,99962.16
2022-08-12T02:27:11.742Z,99960.25
2022-08-12T02:29:41.665Z,99960.50
2022-08-12T02:32:09.868Z,99958.84
2022-08-12T02:34:37.925Z,99953.66
2022-08-12T02:37:06.094Z,99955.56
2022-08-12T02:39:34.781Z,99949.91
2022-08-12T02:42:06.803Z,99947.19
2022-08-12T02:44:38.629Z,99950.97
2022-08-12T02:47:08.130Z,99952.63
2022-08-12T02:49:56.414Z,99942.81
2022-08-12T02:52:26.838Z,99945.53
2022-08-12T02:54:57.618Z,99940.94
2022-08-12T02:57:25.690Z,99949.06
2022-08-12T02:59:53.826Z,99949.06
2022-08-12T03:02:23.522Z,99943.91
2022-08-12T03:04:54.358Z,99938.47
2022-08-12T03:07:56.504Z,99943.09
2022-08-12T03:10:34.717Z,99940.59
2022-08-12T03:13:05.377Z,99949.81
2022-08-12T03:15:33.451Z,99953.56
2022-08-12T03:18:25.537Z,99952.97
2022-08-12T03:20:56.973Z,99952.97
2022-08-12T03:23:30.044Z,99953.22
2022-08-12T03:26:00.884Z,99954.06
2022-08-12T03:28:46.946Z,99947.00
2022-08-12T03:31:15.073Z,99941.00
2022-08-12T03:33:48.199Z,99942.88
2022-08-12T03:36:31.038Z,99947.47
2022-08-12T03:39:23.571Z,99947.72
2022-08-12T03:42:06.383Z,99939.81
2022-08-12T03:44:56.227Z,99942.53
2022-08-12T03:47:42.362Z,99942.53
2022-08-12T03:50:29.116Z,99948.78
2022-08-12T03:53:14.394Z,99946.06
2022-08-12T03:55:59.642Z,99937.09
2022-08-12T03:58:45.085Z,99947.94
2022-08-12T04:01:13.646Z,99949.59
2022-08-12T04:03:53.852Z,99953.34
2022-08-12T04:06:35.608Z,99949.00
2022-08-12T04:09:15.042Z,99951.72
2022-08-12T04:12:02.233Z,99950.91
2022-08-12T04:14:30.343Z,99951.13
2022-08-12T04:16:58.375Z,99954.66
2022-08-12T04:19:26.617Z,99953.84
2022-08-12T04:22:01.255Z,99955.50
2022-08-12T04:24:31.516Z,99953.84
2022-08-12T04:26:59.569Z,99953.03
2022-08-12T04:30:16.933Z,99957.63
2022-08-12T04:32:15.869Z,99959.25
2022-08-12T04:34:44.103Z,99956.56
2022-08-12T04:37:13.582Z,99955.50
2022-08-12T04:39:42.183Z,99956.06
2022-08-12T04:42:10.269Z,99959.38
2022-08-12T04:44:38.419Z,99958.31
2022-08-12T04:47:06.549Z,99961.34
2022-08-12T04:49:34.631Z,99962.75
2022-08-12T04:52:02.825Z,99957.94
2022-08-12T04:54:34.493Z,99959.09
2022-08-12T04:57:04.798Z,99956.97
2022-08-12T04:59:48.499Z,99948.84
2022-08-12T05:02:21.347Z,99949.44
2022-08-12T05:04:50.872Z,99959.19
2022-08-12T05:07:18.916Z,99967.31
2022-08-12T05:09:59.300Z,99962.97
2022-08-12T05:12:31.780Z,99966.72
2022-08-12T05:15:00.760Z,99969.44
2022-08-12T05:17:28.791Z,99961.78
2022-08-12T05:19:58.247Z,99971.00
2022-08-12T05:22:26.819Z,99967.69
2022-08-12T05:24:56.262Z,99962.50
2022-08-12T05:27:24.252Z,99958.97
2022-08-12T05:30:06.504Z,99964.88
2022-08-12T05:32:36.856Z,99974.91
2022-08-12T05:35:06.753Z,99972.41
2022-08-12T05:37:35.527Z,99977.72
2022-08-12T05:40:10.935Z,99970.47
2022-08-12T05:42:39.364Z,99977.50
2022-08-12T05:45:08.392Z,99985.41
2022-08-12T05:47:44.911Z,99987.88
2022-08-12T05:50:22.102Z,99989.75
2022-08-12T05:52:50.119Z,99998.69
2022-08-12T05:55:25.046Z,99989.53
2022-08-12T05:57:56.403Z,99983.25
2022-08-12T06:00:25.798Z,99978.44
2022-08-12T06:02:56.482Z,99981.13
2022-08-12T06:05:24.667Z,99991.16
2022-08-12T06:08:01.677Z,99994.69
2022-08-12T06:10:33.154Z,99994.47
2022-08-12T06:13:02.644Z,99988.19
2022-08-12T06:15:31.128Z,99998.47
2022-08-12T06:18:16.122Z,99996.56
2022-08-12T06:20:44.912Z,99991.16
2022-08-12T06:23:15.384Z,100002.81
2022-08-12T06:25:46.564Z,100003.63
2022-08-12T06:28:17.424Z,99996.91
2022-08-12T06:31:08.269Z,99995.28
2022-08-12T06:33:55.881Z,100003.88
2022-08-12T06:36:23.316Z,100005.53
2022-08-12T06:38:51.776Z,100010.13
2022-08-12T06:41:38.586Z,100002.81
2022-08-12T06:44:09.049Z,99994.47
2022-08-12T06:46:39.573Z,99996.91
2022-08-12T06:49:08.707Z,99997.50
2022-08-12T06:51:36.698Z,99994.31
2022-08-12T06:54:04.937Z,99993.00
2022-08-12T06:57:04.957Z,99991.69
2022-08-12T06:59:22.921Z,100000.22
2022-08-12T07:01:52.001Z,99997.41
2022-08-12T07:04:37.750Z,100003.19
2022-08-12T07:07:07.315Z,100006.38
2022-08-12T07:10:00.109Z,100004.81
2022-08-12T07:12:27.901Z,99999.66
2022-08-12T07:14:56.428Z,99999.53
2022-08-12T07:17:24.437Z,99999.06
2022-08-12T07:19:53.845Z,100003.53
2022-08-12T07:22:23.332Z,100000.47
2022-08-12T07:25:11.680Z,99988.19
2022-08-12T07:27:42.743Z,99991.84
2022-08-12T07:30:12.042Z,99993.81
2022-08-12T07:32:40.311Z,99995.00
2022-08-12T07:35:09.273Z,99994.53
2022-08-12T07:37:41.658Z,99999.44
2022-08-12T07:40:11.812Z,100006.06
2022-08-12T07:42:41.633Z,99999.56
2022-08-12T07:45:10.692Z,99997.44
2022-08-12T07:47:40.654Z,99995.31
2022-08-12T07:50:10.313Z,99992.13
2022-08-12T07:52:39.522Z,99994.56
2022-08-12T07:55:08.574Z,99987.84
2022-08-12T07:57:36.918Z,99996.56
2022-08-12T08:00:07.710Z,99988.19
2022-08-12T08:02:37.209Z,99989.00
2022-08-12T08:05:06.768Z,99991.50
2022-08-12T08:07:34.836Z,99993.13
2022-08-12T08:10:04.018Z,99986.41
2022-08-12T08:12:49.433Z,99985.31
2022-08-12T08:15:20.249Z,99984.28
2022-08-12T08:18:00.845Z,99985.91
2022-08-12T08:20:29.612Z,99992.16
2022-08-12T08:22:58.356Z,99991.56
2022-08-12T08:25:36.221Z,99996.06
2022-08-12T08:28:06.916Z,99991.94
2022-08-12T08:30:38.266Z,99991.63
2022-08-12T08:33:22.729Z,99999.16
2022-08-12T08:35:54.337Z,99998.84
2022-08-12T08:38:33.200Z,100000.97
2022-08-12T08:42:15.210Z,99989.78
2022-08-12T08:44:11.103Z,100008.16
2022-08-12T08:46:40.781Z,99994.03
2022-08-12T08:49:09.166Z,99996.16
2022-08-12T08:51:37.355Z,100001.56
2022-08-12T08:54:06.924Z,99992.88
2022-08-12T08:56:35.042Z,99989.31
2022-08-12T08:59:04.647Z,99992.88
2022-08-12T09:05:13.273Z,99984.75
2022-08-12T09:07:17.725Z,99982.03
2022-08-12T09:10:03.322Z,99993.13
2022-08-12T09:13:06.354Z,99985.81
2022-08-12T09:15:36.294Z,99988.50
2022-08-12T09:18:08.538Z,99988.50
2022-08-12T09:20:40.466Z,99986.63
2022-08-12T09:23:58.463Z,99986.88
2022-08-12T09:26:04.403Z,99981.47
2022-08-12T09:28:33.490Z,99996.63
2022-08-12T09:31:01.644Z,99985.81
2022-08-12T09:34:31.065Z,99991.22
2022-08-12T09:36:31.374Z,99981.47
2022-08-12T09:40:05.114Z,99977.06
2022-08-12T09:42:53.149Z,99968.94
2022-08-12T09:45:24.603Z,99970.03
2022-08-12T09:48:20.261Z,99969.22
2022-08-12T09:50:52.196Z,99967.31
2022-08-12T09:53:36.188Z,99966.25
2022-08-12T09:56:57.301Z,99961.91
2022-08-12T09:58:57.765Z,99970.03
2022-08-12T10:01:35.739Z,99956.25
2022-08-12T10:04:19.811Z,99954.34
2022-08-12T10:06:55.355Z,99955.16
2022-08-12T10:09:28.829Z,99947.84
2022-08-12T10:12:33.475Z,99938.69
2022-08-12T10:15:02.088Z,99939.50
2022-08-12T10:17:30.376Z,99951.16
2022-08-12T10:19:59.823Z,99942.81
2022-08-12T10:22:37.060Z,99939.25
2022-08-12T10:26:36.557Z,99933.59
2022-08-12T10:28:35.106Z,99934.41
2022-08-12T10:31:05.315Z,99932.50
2022-08-12T10:33:54.917Z,99924.97
2022-08-12T10:36:40.155Z,99919.56
2022-08-12T10:40:01.942Z,99914.72
2022-08-12T10:42:18.389Z,99918.25
2022-08-12T10:45:01.111Z,99913.91
2022-08-12T10:48:07.447Z,99914.50
2022-08-12T10:50:29.621Z,99913.41
2022-08-12T10:53:09.533Z,99915.03
2022-08-12T10:55:37.668Z,99908.00
2022-08-12T10:58:28.384Z,99902.06
2022-08-12T11:01:49.636Z,99906.41
2022-08-12T11:04:26.120Z,99895.34
2022-08-12T11:07:06.417Z,99901.09
2022-08-12T11:09:41.614Z,99896.50
2022-08-12T11:12:56.971Z,99910.63
2022-08-12T11:14:59.513Z,99902.25
2022-08-12T11:17:52.668Z,99901.19
2022-08-12T11:20:16.827Z,99895.53
2022-08-12T11:22:49.362Z,99892.56
2022-08-12T11:25:42.210Z,99887.97
2022-08-12T11:28:14.937Z,99884.19
2022-08-12T11:30:45.554Z,99881.25
2022-08-12T11:33:24.051Z,99876.63
2022-08-12T11:36:18.296Z,99875.31
2022-08-12T11:38:51.180Z,99868.81
2022-08-12T11:41:31.363Z,99867.78
2022-08-12T11:44:12.662Z,99864.22
2022-08-12T11:46:52.623Z,99873.78
2022-08-12T11:49:31.647Z,99861.88
2022-08-12T11:52:02.128Z,99865.41
2022-08-12T11:54:30.533Z,99859.75
2022-08-12T11:57:00.196Z,99855.16
2022-08-12T12:02:20.547Z,99850.03
2022-08-12T12:04:53.043Z,99846.25
2022-08-12T12:08:36.293Z,99847.91
2022-08-12T12:10:11.615Z,99853.06
2022-08-12T12:12:41.478Z,99843.88
2022-08-12T12:15:24.830Z,99851.19
2022-08-12T12:17:56.361Z,99845.78
2022-08-12T12:20:26.004Z,99844.69
2022-08-12T12:22:58.444Z,99837.38
2022-08-12T12:25:59.216Z,99844.47
2022-08-12T12:28:37.092Z,99837.16
2022-08-12T12:31:04.186Z,99839.03
2022-08-12T12:33:57.023Z,99831.72
2022-08-12T12:36:29.283Z,99824.16
2022-08-12T12:38:58.287Z,99826.88
2022-08-12T12:42:54.379Z,99816.56
2022-08-12T12:44:26.042Z,99810.09
2022-08-12T12:47:05.058Z,99817.16
2022-08-12T12:54:07.452Z,99805.50
2022-08-12T12:56:34.635Z,99801.69
2022-08-12T12:59:06.147Z,99791.66
2022-08-12T13:01:38.340Z,99796.84
2022-08-12T13:04:14.432Z,99796.84
2022-08-12T13:06:42.702Z,99795.75
2022-08-12T13:09:13.557Z,99789.28
2022-08-12T13:11:44.547Z,99783.06
2022-08-12T13:14:27.946Z,99788.47
2022-08-12T13:16:57.682Z,99780.34
2022-08-12T13:19:37.554Z,99789.03
2022-08-12T13:22:21.061Z,99780.88
2022-08-12T13:24:56.760Z,99778.75
2022-08-12T13:27:35.360Z,99774.13
2022-08-12T13:30:11.039Z,99777.69
2022-08-12T13:32:40.742Z,99778.50
2022-08-12T13:35:20.229Z,99776.63
2022-08-12T13:37:59.261Z,99778.50
2022-08-12T13:40:32.866Z,99780.13
2022-08-12T13:43:01.881Z,99774.72
2022-08-12T13:45:31.330Z,99771.75
2022-08-12T13:48:01.809Z,99764.69
2022-08-12T13:50:32.819Z,99770.94
2022-08-12T13:53:06.329Z,99769.88
2022-08-12T13:56:01.996Z,99772.56
2022-08-12T13:58:32.881Z,99769.88
2022-08-12T14:01:06.513Z,99763.34
2022-08-12T14:03:50.515Z,99753.34
2022-08-12T14:06:19.674Z,99757.94
2022-08-12T14:08:49.922Z,99757.69
2022-08-12T14:11:25.518Z,99754.16
2022-08-12T14:14:03.733Z,99749.56
2022-08-12T14:16:49.229Z,99749.56
2022-08-12T14:19:24.125Z,99746.56
2022-08-12T14:21:59.302Z,99749.28
2022-08-12T14:24:41.045Z,99738.44
2022-08-12T14:27:11.408Z,99750.13
2022-08-12T14:30:05.450Z,99739.28
2022-08-12T14:32:35.013Z,99744.72
2022-08-12T14:35:09.024Z,99742.81
2022-08-12T14:37:55.372Z,99740.91
2022-08-12T14:40:28.447Z,99734.66
2022-08-12T14:42:58.957Z,99740.91
2022-08-12T14:45:44.857Z,99726.53
2022-08-12T14:48:16.016Z,99726.53
2022-08-12T14:51:03.139Z,99727.34
2022-08-12T14:59:55.689Z,99725.44
2022-08-12T15:02:20.768Z,99722.72
2022-08-12T15:04:59.189Z,99719.78
2022-08-12T15:07:34.109Z,99720.59
2022-08-12T15:10:25.426Z,99719.78
2022-08-12T15:13:07.318Z,99723.53
2022-08-12T15:15:44.090Z,99714.59
2022-08-12T15:18:16.012Z,99723.53
2022-08-12T15:20:50.663Z,99720.00
2022-08-12T15:23:21.358Z,99723.53
2022-08-12T15:25:50.128Z,99728.97
2022-08-12T15:28:29.339Z,99727.09
2022-08-12T15:31:02.376Z,99723.53
2022-08-12T15:33:45.483Z,99719.78
2022-08-12T15:36:14.661Z,99718.69
2022-08-12T15:38:47.583Z,99715.97
2022-08-12T15:41:16.479Z,99714.06
2022-08-12T15:44:17.183Z,99715.97
2022-08-12T15:46:34.445Z,99705.13
2022-08-12T15:49:03.891Z,99702.16
2022-08-12T15:51:58.920Z,99696.75
2022-08-12T15:54:34.545Z,99685.09
2022-08-12T15:57:08.264Z,99685.91
2022-08-12T16:00:00.232Z,99686.72
2022-08-12T16:02:29.494Z,99688.59
2022-08-12T16:04:58.367Z,99681.28
2022-08-12T16:07:29.881Z,99682.91
2022-08-12T16:10:05.708Z,99682.09
2022-08-12T16:12:43.685Z,99680.47
2022-08-12T16:15:23.440Z,99687.78
2022-08-12T16:18:15.413Z,99675.03
2022-08-12T16:20:46.382Z,99676.94
2022-08-12T16:23:35.974Z,99686.72
2022-08-12T16:26:05.949Z,99689.41
2022-08-12T16:28:38.255Z,99689.41
2022-08-12T16:31:06.520Z,99684.00
2022-08-12T16:33:59.636Z,99682.91
2022-08-12T16:36:29.115Z,99679.38
2022-08-12T16:38:57.384Z,99686.72
2022-08-12T16:41:29.218Z,99673.13
2022-08-12T16:44:06.383Z,99674.22
2022-08-12T16:46:36.450Z,99668.81
2022-08-12T16:49:13.271Z,99674.22
2022-08-12T16:51:45.976Z,99672.31
2022-08-12T16:54:16.595Z,99676.66
2022-08-12T16:56:50.946Z,99680.47
2022-08-12T16:59:24.092Z,99679.66
2022-08-12T17:01:52.321Z,99679.66
2022-08-12T17:04:24.388Z,99679.66
2022-08-12T17:06:52.901Z,99676.94
2022-08-12T17:09:20.970Z,99679.66
2022-08-12T17:11:49.915Z,99679.66
2022-08-12T17:14:23.519Z,99683.19
2022-08-12T17:16:54.930Z,99680.47
2022-08-12T17:20:28.916Z,99683.19
2022-08-12T17:22:15.484Z,99685.09
2022-08-12T17:24:54.732Z,99695.09
2022-08-12T17:27:24.217Z,99687.78
2022-08-12T17:30:01.959Z,99690.50
2022-08-12T17:32:32.915Z,99679.66
2022-08-12T17:35:19.584Z,99678.81
2022-08-12T17:37:48.659Z,99687.78
2022-08-12T17:40:34.756Z,99687.78
2022-08-12T17:43:55.630Z,99692.38
2022-08-12T17:45:53.315Z,99692.13
2022-08-12T17:48:21.876Z,99697.56
2022-08-12T17:51:04.876Z,99707.59
2022-08-12T17:53:43.687Z,99704.88
2022-08-12T17:56:27.844Z,99697.56
2022-08-12T17:59:00.803Z,99708.41
2022-08-12T18:01:29.358Z,99706.50
2022-08-12T18:04:21.619Z,99710.03
2022-08-12T18:06:52.975Z,99708.41
2022-08-12T18:09:24.270Z,99713.84
2022-08-12T18:12:10.717Z,99717.38
2022-08-12T18:14:41.652Z,99713.03
2022-08-12T18:17:16.294Z,99713.84
2022-08-12T18:20:03.939Z,99720.09
2022-08-12T18:22:35.122Z,99724.69
2022-08-12T18:25:05.048Z,99732.84
2022-08-12T18:27:43.798Z,99727.41
2022-08-12T18:30:20.467Z,99735.53
2022-08-12T18:32:59.321Z,99732.84
2022-08-12T18:35:53.496Z,99733.91
2022-08-12T18:38:22.388Z,99736.63
2022-08-12T18:41:09.518Z,99733.91
2022-08-12T18:43:57.548Z,99728.72
2022-08-12T18:46:29.836Z,99737.69
2022-08-12T18:49:18.745Z,99732.25
2022-08-12T18:51:54.895Z,99736.06
2022-08-12T18:54:26.989Z,99731.44
2022-08-12T18:56:55.836Z,99738.50
2022-08-12T19:00:00.175Z,99735.78
2022-08-12T19:02:19.458Z,99734.97
2022-08-12T19:04:53.316Z,99733.06
2022-08-12T19:07:22.823Z,99736.63
2022-08-12T19:09:58.933Z,99739.34
2022-08-12T19:12:57.026Z,99734.72
2022-08-12T19:15:27.105Z,99735.53
2022-08-12T19:18:02.677Z,99732.84
2022-08-12T19:20:31.887Z,99733.91
2022-08-12T19:23:07.130Z,99727.41
2022-08-12T19:26:00.791Z,99723.88
2022-08-12T19:28:29.315Z,99719.25
2022-08-12T19:31:15.111Z,99717.63
2022-08-12T19:34:00.894Z,99716.78
2022-08-12T19:36:34.691Z,99712.22
2022-08-12T19:39:15.201Z,99710.56
2022-08-12T19:42:00.629Z,99714.06
2022-08-12T19:44:30.082Z,99710.56
2022-08-12T19:47:01.111Z,99716.78
2022-08-12T19:49:29.709Z,99709.75
2022-08-12T19:51:57.802Z,99704.31
2022-08-12T19:54:30.319Z,99711.63
2022-08-12T19:57:01.530Z,99703.50
2022-08-12T19:59:43.589Z,99705.94
2022-08-12T20:02:32.996Z,99701.34
2022-08-12T20:06:05.994Z,99704.06
2022-08-12T20:07:58.967Z,99706.78
2022-08-12T20:10:35.330Z,99705.13
2022-08-12T20:13:18.326Z,99707.03
2022-08-12T20:15:49.898Z,99713.84
2022-08-12T20:18:19.196Z,99708.41
2022-08-12T20:21:07.715Z,99711.94
2022-08-12T20:23:59.992Z,99698.38
2022-08-12T20:26:29.162Z,99697.56
2022-08-12T20:29:01.421Z,99695.94
2022-08-12T20:31:31.579Z,99694.84
2022-08-12T20:34:00.449Z,99683.19
2022-08-12T20:36:40.736Z,99686.72
2022-08-12T20:39:33.775Z,99679.66
2022-08-12T20:42:07.386Z,99684.22
2022-08-12T20:44:39.840Z,99676.94
2022-08-12T20:47:17.997Z,99676.94
2022-08-12T20:49:55.242Z,99674.22
2022-08-12T20:52:25.542Z,99679.91
2022-08-12T20:54:58.587Z,99672.56
2022-08-12T20:57:38.101Z,99676.09
2022-08-12T21:00:19.434Z,99667.13
2022-08-12T21:02:50.918Z,99685.91
2022-08-12T21:06:13.601Z,99670.66
2022-08-12T21:08:26.570Z,99676.94
2022-08-12T21:10:58.834Z,99670.44
2022-08-12T21:13:27.461Z,99667.72
2022-08-12T21:16:01.232Z,99670.44
2022-08-12T21:18:31.620Z,99667.72
2022-08-12T21:20:59.944Z,99672.06
2022-08-12T21:23:30.846Z,99666.63
2022-08-12T21:26:06.079Z,99677.47
2022-08-12T21:28:39.273Z,99673.94
2022-08-12T21:32:34.275Z,99684.00
2022-08-12T21:34:07.233Z,99679.66
2022-08-12T21:36:39.761Z,99672.31
2022-08-12T21:39:20.573Z,99669.34
2022-08-12T21:41:50.323Z,99665.00
2022-08-12T21:44:24.535Z,99658.75
2022-08-12T21:47:20.423Z,99666.09
2022-08-12T21:50:03.392Z,99665.25
2022-08-12T21:52:36.005Z,99668.81
2022-08-12T21:55:17.891Z,99666.09
2022-08-12T21:57:50.831Z,99662.53
2022-08-12T22:00:31.490Z,99666.09
2022-08-12T22:04:02.122Z,99660.66
2022-08-12T22:06:30.630Z,99661.47
2022-08-12T22:09:16.983Z,99654.16
2022-08-12T22:11:56.003Z,99651.44
2022-08-12T22:14:26.782Z,99646.00
2022-08-12T22:16:56.060Z,99648.72
2022-08-12T22:19:27.051Z,99638.69
2022-08-12T22:21:56.180Z,99641.41
2022-08-12T22:24:29.998Z,99642.22
2022-08-12T22:26:59.443Z,99636.78
2022-08-12T22:29:53.354Z,99649.53
2022-08-12T22:32:22.014Z,99643.28
2022-08-12T22:35:22.413Z,99644.09
2022-08-12T22:37:53.442Z,99630.81
2022-08-12T22:40:23.990Z,99630.81
2022-08-12T22:43:15.549Z,99629.97
2022-08-12T22:46:01.419Z,99628.09
2022-08-12T22:48:30.729Z,99630.81
2022-08-12T22:51:00.267Z,99628.09
2022-08-12T22:53:36.284Z,99629.16
2022-08-12T22:56:06.825Z,99626.44
2022-08-12T22:58:40.181Z,99628.09
2022-08-12T23:01:10.897Z,99619.13
2022-08-12T23:03:47.955Z,99618.31
2022-08-12T23:06:21.396Z,99610.16
2022-08-12T23:08:49.886Z,99615.59
2022-08-12T23:11:24.005Z,99609.13
2022-08-12T23:13:56.101Z,99614.53
2022-08-12T23:16:29.199Z,99620.78
2022-08-12T23:19:01.688Z,99621.59
2022-08-12T23:22:03.682Z,99620.78
2022-08-12T23:24:28.894Z,99624.31
2022-08-12T23:27:14.145Z,99618.88
2022-08-12T23:29:43.187Z,99620.78
2022-08-12T23:32:36.150Z,99617.25
2022-08-12T23:35:18.879Z,99619.97
2022-08-12T23:37:53.767Z,99610.16
2022-08-12T23:40:24.534Z,99608.25
2022-08-12T23:42:54.320Z,99612.88
2022-08-12T23:45:31.797Z,99616.41
2022-08-12T23:48:02.091Z,99611.25
2022-08-12T23:50:33.748Z,99605.81
2022-08-12T23:53:06.492Z,99611.25
2022-08-12T23:55:45.675Z,99610.44
2022-08-12T23:58:21.824Z,99610.44
